sensor_id;sensor_type;location;lat;lon;timestamp;temperature;humidity
17944;DHT22;9097;47.028;15.444;2024-02-26T00:04:19;4.00;99.90
17944;DHT22;9097;47.028;15.444;2024-02-26T00:07:23;3.90;99.90
17944;DHT22;9097;47.028;15.444;2024-02-26T00:10:26;4.00;99.90
17944;DHT22;9097;47.028;15.444;2024-02-26T01:38:55;3.40;99.90
17944;DHT22;9097;47.028;15.444;2024-02-26T01:41:57;3.40;99.90
17944;DHT22;9097;47.028;15.444;2024-02-26T01:45:01;3.40;99.90
17944;DHT22;9097;47.028;15.444;2024-02-26T01:48:05;3.20;99.90
17944;DHT22;9097;47.028;15.444;2024-02-26T01:51:11;3.10;99.90
17944;DHT22;9097;47.028;15.444;2024-02-26T01:54:14;3.10;99.90
17944;DHT22;9097;47.028;15.444;2024-02-26T01:57:17;3.20;99.90
17944;DHT22;9097;47.028;15.444;2024-02-26T02:00:20;3.20;99.90
17944;DHT22;9097;47.028;15.444;2024-02-26T02:03:24;3.20;99.90
17944;DHT22;9097;47.028;15.444;2024-02-26T02:06:28;3.10;99.90
17944;DHT22;9097;47.028;15.444;2024-02-26T02:09:30;3.00;99.90
17944;DHT22;9097;47.028;15.444;2024-02-26T02:12:33;3.00;99.90
17944;DHT22;9097;47.028;15.444;2024-02-26T02:15:37;2.90;99.90
17944;DHT22;9097;47.028;15.444;2024-02-26T02:18:40;2.90;99.90
17944;DHT22;9097;47.028;15.444;2024-02-26T02:24:46;2.80;99.90
17944;DHT22;9097;47.028;15.444;2024-02-26T02:27:49;2.80;99.90
17944;DHT22;9097;47.028;15.444;2024-02-26T02:30:52;2.80;99.90
17944;DHT22;9097;47.028;15.444;2024-02-26T02:33:55;2.80;99.90
17944;DHT22;9097;47.028;15.444;2024-02-26T02:36:59;2.80;99.90
17944;DHT22;9097;47.028;15.444;2024-02-26T02:40:02;2.80;99.90
17944;DHT22;9097;47.028;15.444;2024-02-26T02:43:06;2.80;99.90
17944;DHT22;9097;47.028;15.444;2024-02-26T02:46:08;2.80;99.90
17944;DHT22;9097;47.028;15.444;2024-02-26T02:49:12;2.70;99.90
17944;DHT22;9097;47.028;15.444;2024-02-26T02:52:16;2.70;99.90
17944;DHT22;9097;47.028;15.444;2024-02-26T02:55:19;2.70;99.90
17944;DHT22;9097;47.028;15.444;2024-02-26T02:58:22;2.70;99.90
17944;DHT22;9097;47.028;15.444;2024-02-26T03:01:24;2.70;99.90
17944;DHT22;9097;47.028;15.444;2024-02-26T03:04:27;2.60;99.90
17944;DHT22;9097;47.028;15.444;2024-02-26T03:07:32;2.70;99.90
17944;DHT22;9097;47.028;15.444;2024-02-26T03:10:34;2.70;99.90
17944;DHT22;9097;47.028;15.444;2024-02-26T03:13:37;2.70;99.90
17944;DHT22;9097;47.028;15.444;2024-02-26T03:16:39;2.80;99.90
17944;DHT22;9097;47.028;15.444;2024-02-26T03:19:44;2.90;99.90
17944;DHT22;9097;47.028;15.444;2024-02-26T03:22:49;2.70;99.90
17944;DHT22;9097;47.028;15.444;2024-02-26T08:40:22;9.00;99.90
17944;DHT22;9097;47.028;15.444;2024-02-26T08:43:26;9.10;99.90
17944;DHT22;9097;47.028;15.444;2024-02-26T08:46:28;9.20;99.90
17944;DHT22;9097;47.028;15.444;2024-02-26T08:49:30;9.30;99.90
17944;DHT22;9097;47.028;15.444;2024-02-26T09:17:01;9.40;99.90
17944;DHT22;9097;47.028;15.444;2024-02-26T22:10:24;7.30;99.90
17944;DHT22;9097;47.028;15.444;2024-02-26T22:13:27;6.90;99.90
17944;DHT22;9097;47.028;15.444;2024-02-26T22:16:31;6.90;99.90
17944;DHT22;9097;47.028;15.444;2024-02-26T22:19:33;6.70;99.90
17944;DHT22;9097;47.028;15.444;2024-02-26T22:22:36;6.60;99.90
17944;DHT22;9097;47.028;15.444;2024-02-26T22:25:40;6.60;99.90
17944;DHT22;9097;47.028;15.444;2024-02-26T22:28:42;6.60;99.90
17944;DHT22;9097;47.028;15.444;2024-02-26T22:31:46;6.70;99.90
17944;DHT22;9097;47.028;15.444;2024-02-26T22:34:53;6.50;99.90
17944;DHT22;9097;47.028;15.444;2024-02-26T22:37:55;6.50;99.90
17944;DHT22;9097;47.028;15.444;2024-02-26T22:41:00;6.30;99.90
17944;DHT22;9097;47.028;15.444;2024-02-26T22:44:03;6.20;99.90
17944;DHT22;9097;47.028;15.444;2024-02-26T22:47:28;6.10;99.90
17944;DHT22;9097;47.028;15.444;2024-02-26T22:50:37;6.10;99.90
17944;DHT22;9097;47.028;15.444;2024-02-26T22:53:48;5.90;99.90
17944;DHT22;9097;47.028;15.444;2024-02-26T22:57:00;6.00;99.90
17944;DHT22;9097;47.028;15.444;2024-02-26T23:00:09;5.90;99.90
17944;DHT22;9097;47.028;15.444;2024-02-26T23:03:27;5.80;99.90
17944;DHT22;9097;47.028;15.444;2024-02-26T23:06:29;5.90;99.90
17944;DHT22;9097;47.028;15.444;2024-02-26T23:09:33;5.90;99.90
17944;DHT22;9097;47.028;15.444;2024-02-26T23:12:35;5.90;99.90
17944;DHT22;9097;47.028;15.444;2024-02-26T23:15:38;5.80;99.90
17944;DHT22;9097;47.028;15.444;2024-02-26T23:21:50;5.60;99.90
17944;DHT22;9097;47.028;15.444;2024-02-26T23:24:58;5.60;99.90
17944;DHT22;9097;47.028;15.444;2024-02-26T23:28:02;5.40;99.90
17944;DHT22;9097;47.028;15.444;2024-02-26T23:31:04;5.50;99.90
17944;DHT22;9097;47.028;15.444;2024-02-26T23:34:08;5.30;99.90
17944;DHT22;9097;47.028;15.444;2024-02-26T23:37:11;5.40;99.90
17944;DHT22;9097;47.028;15.444;2024-02-26T23:40:13;5.50;99.90
17944;DHT22;9097;47.028;15.444;2024-02-26T23:43:15;5.40;99.90
17944;DHT22;9097;47.028;15.444;2024-02-26T23:46:18;5.40;99.90
17944;DHT22;9097;47.028;15.444;2024-02-26T23:49:21;5.30;99.90
17944;DHT22;9097;47.028;15.444;2024-02-26T23:52:29;5.20;99.90
17944;DHT22;9097;47.028;15.444;2024-02-26T23:55:32;5.20;99.90
17944;DHT22;9097;47.028;15.444;2024-02-26T23:58:34;5.10;99.90
